Time;durP1;ratioP1;P1;durP2;ratioP2;P2;SDS_P1;SDS_P2;PMS_P1;PMS_P2;Temp;Humidity;BMP_temperature;BMP_pressure;BME280_temperature;BME280_humidity;BME280_pressure;Samples;Min_cycle;Max_cycle;Signal;HPM_P1;HPM_P2
2021/09/05 00:02:14;;;;;;;18.57;9.93;;;;;;;7.76;72.31;102205.58;1777127;80;21066;-82
2021/09/05 00:04:41;;;;;;;19.48;10.75;;;;;;;7.75;72.39;102205.48;1777084;80;21794;-81
2021/09/05 00:07:07;;;;;;;23.22;10.82;;;;;;;7.73;72.42;102211.97;1776991;80;21476;-81
2021/09/05 00:09:35;;;;;;;14.65;9.65;;;;;;;7.70;72.47;102211.77;1777172;80;21855;-82
2021/09/05 00:12:03;;;;;;;18.50;10.82;;;;;;;7.68;72.52;102209.88;1776769;79;21029;-81
2021/09/05 00:14:30;;;;;;;18.65;10.82;;;;;;;7.64;72.59;102204.86;1776959;80;21556;-81
2021/09/05 00:16:57;;;;;;;15.53;9.95;;;;;;;7.64;72.67;102211.80;1777035;80;21769;-82
2021/09/05 00:19:23;;;;;;;17.17;10.25;;;;;;;7.62;72.66;102207.80;1776928;80;21657;-82
2021/09/05 00:21:50;;;;;;;14.80;9.60;;;;;;;7.61;72.69;102212.94;1777145;80;21123;-81
2021/09/05 00:24:17;;;;;;;17.27;9.58;;;;;;;7.59;72.72;102215.47;1776921;80;21106;-82
2021/09/05 00:26:46;;;;;;;22.05;10.13;;;;;;;7.58;72.73;102213.26;1777037;80;21011;-81
2021/09/05 00:29:12;;;;;;;15.98;9.70;;;;;;;7.57;72.73;102212.74;1776868;80;21906;-81
2021/09/05 00:31:39;;;;;;;19.87;9.65;;;;;;;7.57;72.74;102217.09;1776891;80;21105;-81
2021/09/05 00:34:05;;;;;;;15.55;9.25;;;;;;;7.56;72.76;102214.88;1777176;80;21023;-80
2021/09/05 00:36:32;;;;;;;14.23;8.90;;;;;;;7.55;72.80;102215.68;1776757;80;21071;-80
2021/09/05 00:38:59;;;;;;;16.57;8.73;;;;;;;7.56;72.81;102220.13;1776751;80;21172;-80
2021/09/05 00:41:25;;;;;;;15.32;8.13;;;;;;;7.56;72.80;102221.44;1776803;80;21833;-80
2021/09/05 00:44:03;;;;;;;13.68;7.90;;;;;;;7.55;72.80;102221.33;1776733;80;21055;-80
2021/09/05 00:46:32;;;;;;;14.80;8.85;;;;;;;7.54;72.80;102219.52;1776766;80;21623;-80
2021/09/05 00:48:58;;;;;;;14.28;7.80;;;;;;;7.53;72.84;102225.17;1776945;80;21020;-81
2021/09/05 00:51:32;;;;;;;12.50;7.87;;;;;;;7.53;72.87;102226.48;1776888;79;21563;-81
2021/09/05 00:53:59;;;;;;;12.53;7.62;;;;;;;7.54;72.86;102223.44;1777134;80;22591;-81
2021/09/05 00:56:29;;;;;;;15.08;7.85;;;;;;;7.52;72.85;102223.34;1776823;80;20991;-81
2021/09/05 00:59:02;;;;;;;14.05;7.75;;;;;;;7.52;72.87;102227.27;1776861;80;21062;-81
2021/09/05 01:01:26;;;;;;;11.68;7.33;;;;;;;7.53;72.90;102225.58;1776698;80;21059;-81
2021/09/05 01:03:53;;;;;;;17.50;8.75;;;;;;;7.52;72.91;102229.89;1776855;80;21050;-81
2021/09/05 01:06:19;;;;;;;12.25;7.40;;;;;;;7.51;72.94;102232.45;1776577;80;21732;-80
2021/09/05 01:08:49;;;;;;;15.88;8.48;;;;;;;7.49;73.00;102235.34;1777466;80;20987;-80
2021/09/05 01:11:16;;;;;;;13.13;7.70;;;;;;;7.48;73.00;102234.87;1777526;80;21129;-81
2021/09/05 01:13:43;;;;;;;14.75;8.20;;;;;;;7.46;73.04;102233.45;1777219;79;21656;-80
2021/09/05 01:16:30;;;;;;;14.35;8.05;;;;;;;7.45;73.11;102234.66;1777228;80;21593;-80
2021/09/05 01:19:09;;;;;;;14.33;8.63;;;;;;;7.43;73.13;102240.22;1777586;80;21745;-80
2021/09/05 01:21:36;;;;;;;18.50;8.63;;;;;;;7.42;73.13;102243.67;1774796;80;21564;-80
2021/09/05 01:24:03;;;;;;;15.35;8.10;;;;;;;7.41;73.21;102244.05;1777622;80;21073;-80
2021/09/05 01:26:32;;;;;;;12.95;7.47;;;;;;;7.40;73.20;102244.88;1777508;80;21015;-80
2021/09/05 01:28:59;;;;;;;13.22;7.30;;;;;;;7.39;73.19;102243.05;1777706;80;21071;-80
2021/09/05 01:31:28;;;;;;;14.60;7.78;;;;;;;7.38;73.25;102251.73;1777673;80;21690;-80
2021/09/05 01:33:54;;;;;;;12.47;8.35;;;;;;;7.37;73.25;102246.87;1775958;80;21109;-80
2021/09/05 01:36:21;;;;;;;12.70;8.80;;;;;;;7.37;73.25;102247.30;1777626;80;21073;-81
2021/09/05 01:38:48;;;;;;;13.32;7.50;;;;;;;7.38;73.25;102253.05;1777657;80;20984;-81
2021/09/05 01:41:16;;;;;;;12.63;7.15;;;;;;;7.37;73.24;102253.42;1777564;80;21625;-81
2021/09/05 01:43:42;;;;;;;11.85;7.25;;;;;;;7.38;73.30;102253.05;1777604;80;22569;-82
2021/09/05 01:46:09;;;;;;;15.10;7.60;;;;;;;7.37;73.32;102256.05;1777740;80;20988;-81
2021/09/05 01:48:35;;;;;;;14.03;6.92;;;;;;;7.40;73.36;102257.98;1777745;80;21537;-81
2021/09/05 01:51:02;;;;;;;12.78;7.60;;;;;;;7.42;73.37;102257.66;1777523;80;21070;-81
2021/09/05 01:53:29;;;;;;;11.12;6.60;;;;;;;7.37;73.34;102251.22;1777699;80;21476;-81
2021/09/05 01:55:55;;;;;;;10.82;6.80;;;;;;;7.44;73.38;102257.35;1777708;79;21743;-82
2021/09/05 01:58:24;;;;;;;12.58;7.20;;;;;;;7.45;73.30;102262.17;1777458;80;21055;-81
2021/09/05 02:00:50;;;;;;;11.20;7.42;;;;;;;7.44;73.29;102268.24;1777559;80;21054;-82
2021/09/05 02:03:17;;;;;;;11.60;6.75;;;;;;;7.42;73.26;102268.55;1777162;80;21555;-83
2021/09/05 02:05:44;;;;;;;12.63;7.12;;;;;;;7.39;73.28;102267.94;1777164;80;21142;-83
2021/09/05 02:08:10;;;;;;;9.33;6.00;;;;;;;7.38;73.25;102264.84;1777369;80;22545;-82
2021/09/05 02:10:37;;;;;;;12.90;7.53;;;;;;;7.37;73.25;102266.94;1777352;79;21066;-82
2021/09/05 02:13:04;;;;;;;12.07;6.95;;;;;;;7.36;73.23;102267.77;1777238;80;21119;-83
2021/09/05 02:15:30;;;;;;;12.78;6.53;;;;;;;7.33;73.26;102263.22;1777249;80;20992;-81
2021/09/05 02:17:57;;;;;;;10.40;6.17;;;;;;;7.33;73.27;102267.56;1777173;79;21070;-82
2021/09/05 02:20:24;;;;;;;13.55;6.80;;;;;;;7.32;73.37;102263.13;1777268;80;22445;-83
2021/09/05 02:22:51;;;;;;;10.53;6.33;;;;;;;7.31;73.31;102260.91;1777150;80;21074;-83
2021/09/05 02:25:17;;;;;;;11.38;6.20;;;;;;;7.31;73.30;102263.95;1777260;80;21130;-82
2021/09/05 02:27:44;;;;;;;11.30;6.53;;;;;;;7.29;73.35;102262.54;1777186;80;21082;-82
2021/09/05 02:30:12;;;;;;;12.95;7.10;;;;;;;7.28;73.39;102267.30;1777518;80;21508;-83
2021/09/05 02:32:39;;;;;;;15.05;6.72;;;;;;;7.29;73.43;102270.81;1777741;80;22426;-83
2021/09/05 02:35:07;;;;;;;11.30;6.80;;;;;;;7.28;73.43;102271.22;1777560;80;20995;-83
2021/09/05 02:37:35;;;;;;;10.23;6.15;;;;;;;7.27;73.42;102265.47;1777207;79;21591;-83
2021/09/05 02:40:04;;;;;;;10.98;6.58;;;;;;;7.27;73.42;102270.70;1777364;80;21058;-83
2021/09/05 02:42:33;;;;;;;13.65;6.65;;;;;;;7.27;73.48;102269.81;1777373;80;21126;-83
2021/09/05 02:45:03;;;;;;;11.97;6.85;;;;;;;7.27;73.47;102275.05;1776631;80;22572;-84
2021/09/05 02:47:31;;;;;;;12.35;6.45;;;;;;;7.24;73.49;102273.13;1748328;80;38900;-84
2021/09/05 02:49:57;;;;;;;11.38;6.30;;;;;;;7.28;73.53;102274.22;1777687;80;21253;-83
2021/09/05 02:52:24;;;;;;;11.85;6.72;;;;;;;7.28;73.54;102275.53;1777557;80;21160;-83
2021/09/05 02:54:51;;;;;;;14.43;6.70;;;;;;;7.31;73.57;102276.63;1777738;80;21525;-83
2021/09/05 02:57:17;;;;;;;9.20;6.08;;;;;;;7.35;73.58;102280.35;1777390;80;22500;-83
2021/09/05 02:59:44;;;;;;;11.22;6.22;;;;;;;7.38;73.58;102283.17;1777394;80;21131;-82
2021/09/05 03:02:11;;;;;;;13.00;6.47;;;;;;;7.42;73.61;102283.86;1777307;80;21513;-82
2021/09/05 03:04:38;;;;;;;12.23;6.62;;;;;;;7.48;73.64;102280.72;1777159;79;21549;-82
2021/09/05 03:07:04;;;;;;;11.50;6.00;;;;;;;7.55;73.68;102281.19;1777268;80;21093;-83
2021/09/05 03:09:31;;;;;;;9.20;5.85;;;;;;;7.67;73.68;102282.34;1777308;79;21742;-81
2021/09/05 03:11:58;;;;;;;10.35;6.10;;;;;;;7.77;73.63;102286.04;1777309;80;21058;-81
2021/09/05 03:14:24;;;;;;;12.63;6.62;;;;;;;7.91;73.61;102292.52;1776800;80;21062;-81
2021/09/05 03:16:51;;;;;;;12.13;6.12;;;;;;;8.03;73.53;102287.10;1776931;80;21035;-82
2021/09/05 03:19:18;;;;;;;12.75;5.83;;;;;;;8.13;73.43;102289.48;1777122;80;21635;-82
2021/09/05 03:21:46;;;;;;;10.85;6.05;;;;;;;8.24;73.33;102291.41;1777301;80;21730;-84
2021/09/05 03:24:13;;;;;;;11.73;6.95;;;;;;;8.34;73.24;102289.42;1777473;80;21046;-83
2021/09/05 03:26:40;;;;;;;9.15;5.83;;;;;;;8.43;73.11;102288.17;1777425;80;21521;-82
2021/09/05 03:29:06;;;;;;;10.75;5.87;;;;;;;8.49;72.95;102284.62;1777543;80;20984;-82
2021/09/05 03:31:33;;;;;;;10.82;6.12;;;;;;;8.54;72.83;102291.05;1777492;80;21596;-83
2021/09/05 03:34:00;;;;;;;14.53;7.25;;;;;;;8.58;72.72;102292.09;1777476;80;21790;-82
2021/09/05 03:36:27;;;;;;;9.15;5.83;;;;;;;8.66;72.68;102296.09;1777216;80;21114;-82
2021/09/05 03:38:53;;;;;;;8.48;5.42;;;;;;;8.70;72.57;102291.50;1777601;80;21638;-83
2021/09/05 03:41:20;;;;;;;10.98;6.95;;;;;;;8.72;72.48;102290.77;1777557;80;21047;-83
2021/09/05 03:43:47;;;;;;;10.72;5.47;;;;;;;8.73;72.29;102296.53;1777697;80;21019;-83
2021/09/05 03:46:14;;;;;;;10.28;5.70;;;;;;;8.72;72.23;102293.39;1777356;80;21711;-83
2021/09/05 03:48:41;;;;;;;9.65;5.92;;;;;;;8.73;72.22;102293.90;1777536;80;21104;-83
2021/09/05 03:51:07;;;;;;;9.40;5.35;;;;;;;8.73;72.13;102300.88;1777389;80;21003;-83
2021/09/05 03:53:34;;;;;;;11.93;6.08;;;;;;;8.70;72.13;102298.97;1777104;80;21132;-83
2021/09/05 03:56:01;;;;;;;8.85;5.70;;;;;;;8.72;72.21;102303.89;1777390;80;21582;-83
2021/09/05 03:58:27;;;;;;;9.88;6.00;;;;;;;8.77;72.25;102312.05;1777330;80;22562;-84
2021/09/05 04:00:54;;;;;;;11.30;5.42;;;;;;;8.81;72.14;102310.09;1777338;80;21077;-83
2021/09/05 04:03:23;;;;;;;9.58;5.60;;;;;;;8.84;72.08;102314.22;1777565;80;21086;-83
2021/09/05 04:05:49;;;;;;;9.90;5.12;;;;;;;8.89;72.12;102319.30;1777333;80;21031;-83
2021/09/05 04:08:16;;;;;;;10.58;5.28;;;;;;;9.05;72.17;102324.13;1777057;80;21129;-82
2021/09/05 04:10:43;;;;;;;9.48;4.83;;;;;;;9.10;71.91;102323.57;1777029;80;21734;-82
2021/09/05 04:13:15;;;;;;;8.88;5.45;;;;;;;9.10;71.78;102328.83;1777000;80;21034;-82
2021/09/05 04:15:39;;;;;;;8.18;5.47;;;;;;;9.09;71.71;102330.94;1776063;80;21627;-82
2021/09/05 04:18:06;;;;;;;7.70;5.58;;;;;;;9.08;71.68;102333.06;1777301;80;21105;-82
2021/09/05 04:20:32;;;;;;;9.63;6.25;;;;;;;9.07;71.71;102331.27;1777292;80;21046;-82
2021/09/05 04:22:59;;;;;;;8.15;5.53;;;;;;;9.06;71.67;102334.70;1777305;79;22409;-82
2021/09/05 04:25:26;;;;;;;9.10;5.08;;;;;;;9.03;71.62;102337.17;1777091;80;21030;-82
2021/09/05 04:27:53;;;;;;;7.95;4.62;;;;;;;9.00;71.60;102336.98;1777136;80;20995;-82
2021/09/05 04:30:20;;;;;;;9.78;5.22;;;;;;;8.99;71.60;102336.51;1776714;80;21286;-82
2021/09/05 04:32:46;;;;;;;7.53;4.92;;;;;;;8.99;71.65;102347.02;1777223;80;21010;-82
2021/09/05 04:35:13;;;;;;;8.90;4.83;;;;;;;9.00;71.67;102336.98;1777376;80;21740;-81
2021/09/05 04:37:40;;;;;;;8.43;5.15;;;;;;;9.04;71.67;102341.59;1777228;80;21058;-81
2021/09/05 04:40:08;;;;;;;10.15;5.30;;;;;;;9.06;71.57;102351.77;1777316;80;20980;-82
2021/09/05 04:42:36;;;;;;;8.80;5.50;;;;;;;9.07;71.60;102347.03;1777210;80;21067;-81
2021/09/05 04:45:04;;;;;;;9.28;5.33;;;;;;;9.13;71.72;102344.73;1777349;80;21054;-81
2021/09/05 04:47:30;;;;;;;9.20;5.55;;;;;;;9.27;71.79;102346.84;1777233;80;21747;-81
2021/09/05 04:49:57;;;;;;;9.33;5.70;;;;;;;9.78;72.44;102347.38;1777475;80;21004;-81
2021/09/05 04:52:23;;;;;;;9.80;6.55;;;;;;;11.68;73.89;102346.80;1777445;80;21003;-81
2021/09/05 04:54:50;;;;;;;8.98;5.22;;;;;;;13.79;72.52;102338.42;1777282;80;21623;-82
2021/09/05 04:57:17;;;;;;;9.13;5.78;;;;;;;15.65;70.31;102341.09;1777311;80;21110;-82
2021/09/05 04:59:43;;;;;;;7.35;5.05;;;;;;;17.24;68.10;102341.79;1777373;80;21747;-83
2021/09/05 05:02:10;;;;;;;8.13;4.72;;;;;;;18.61;66.10;102345.90;1777292;80;21364;-82
2021/09/05 05:04:37;;;;;;;9.08;4.80;;;;;;;19.78;63.95;102334.77;1777261;80;21067;-81
2021/09/05 05:07:04;;;;;;;8.63;4.35;;;;;;;20.85;62.52;102338.98;1777397;80;21070;-83
2021/09/05 05:09:30;;;;;;;6.37;4.37;;;;;;;21.86;60.67;102344.50;1777441;80;21137;-83
2021/09/05 05:11:57;;;;;;;6.30;4.40;;;;;;;21.91;58.28;102344.97;1777453;80;21574;-83
2021/09/05 05:14:23;;;;;;;8.70;5.83;;;;;;;21.28;56.50;102348.65;1776908;80;21039;-83
2021/09/05 05:16:50;;;;;;;5.92;4.42;;;;;;;20.36;55.33;102351.90;1777094;80;21125;-83
2021/09/05 05:19:29;;;;;;;6.60;4.72;;;;;;;19.41;54.92;102355.20;1776309;80;21599;-82
2021/09/05 05:21:53;;;;;;;7.15;4.50;;;;;;;18.62;55.08;102358.83;1773662;80;21060;-82
2021/09/05 05:24:20;;;;;;;5.65;4.35;;;;;;;17.95;55.24;102362.44;1775080;80;22224;-83
2021/09/05 05:26:46;;;;;;;6.22;4.28;;;;;;;17.43;55.42;102372.37;1776411;80;21064;-82
2021/09/05 05:29:13;;;;;;;5.80;4.00;;;;;;;16.80;55.57;102371.27;1777459;80;21437;-82
2021/09/05 05:31:40;;;;;;;7.87;4.28;;;;;;;16.25;55.95;102378.70;1777529;80;21078;-82
2021/09/05 05:34:06;;;;;;;6.03;4.28;;;;;;;15.79;56.38;102379.62;1772980;80;21049;-82
2021/09/05 05:36:33;;;;;;;5.00;3.87;;;;;;;15.42;56.70;102375.80;1767201;80;21753;-82
2021/09/05 05:39:00;;;;;;;6.45;3.85;;;;;;;15.18;57.21;102382.99;1771518;80;21071;-82
2021/09/05 05:41:26;;;;;;;6.03;4.45;;;;;;;15.03;57.46;102389.59;1775013;80;21155;-82
2021/09/05 05:43:53;;;;;;;6.85;4.28;;;;;;;14.88;57.65;102382.45;1767105;80;21018;-82
2021/09/05 05:46:20;;;;;;;5.00;3.87;;;;;;;14.68;57.75;102387.11;1766812;80;21120;-82
2021/09/05 05:48:46;;;;;;;6.83;4.20;;;;;;;14.49;57.96;102393.05;1766645;79;21783;-81
2021/09/05 05:51:13;;;;;;;7.60;4.33;;;;;;;14.28;58.21;102398.46;1766679;81;21073;-82
2021/09/05 05:53:40;;;;;;;7.47;4.15;;;;;;;14.09;58.44;102394.24;1766865;79;21089;-82
2021/09/05 05:56:06;;;;;;;9.00;4.20;;;;;;;13.93;58.72;102399.84;1766732;80;21058;-82
2021/09/05 05:58:33;;;;;;;7.25;4.65;;;;;;;13.78;59.12;102398.40;1766773;81;21128;-83
2021/09/05 06:01:00;;;;;;;7.35;5.30;;;;;;;13.72;59.36;102402.55;1766889;81;21743;-83
2021/09/05 06:03:26;;;;;;;8.43;4.53;;;;;;;13.61;59.64;102404.80;1766911;81;21599;-83
2021/09/05 06:05:54;;;;;;;7.78;4.55;;;;;;;13.54;59.90;102409.36;1766897;81;21041;-82
2021/09/05 06:08:21;;;;;;;7.03;4.33;;;;;;;13.49;60.00;102409.16;1766917;81;21284;-82
2021/09/05 06:10:48;;;;;;;7.35;4.15;;;;;;;13.43;60.29;102408.93;1767039;81;21077;-82
2021/09/05 06:13:14;;;;;;;5.70;3.92;;;;;;;13.40;60.45;102419.38;1766955;80;22566;-83
2021/09/05 06:15:41;;;;;;;5.72;3.90;;;;;;;13.41;60.80;102415.91;1766763;79;21424;-82
2021/09/05 06:18:08;;;;;;;11.48;4.70;;;;;;;13.45;61.04;102414.28;1766865;81;21061;-82
2021/09/05 06:20:35;;;;;;;8.05;3.87;;;;;;;13.49;61.09;102413.13;1767007;80;21073;-82
2021/09/05 06:23:01;;;;;;;8.65;4.15;;;;;;;13.53;61.18;102415.48;1767191;80;21076;-83
2021/09/05 06:25:28;;;;;;;7.15;4.28;;;;;;;13.54;61.30;102412.01;1767072;81;21708;-81
2021/09/05 06:27:55;;;;;;;5.40;3.77;;;;;;;13.59;61.34;102414.42;1766953;81;21619;-83
2021/09/05 06:30:21;;;;;;;5.80;3.77;;;;;;;13.61;61.36;102415.38;1766735;81;21077;-81
2021/09/05 06:32:48;;;;;;;7.47;3.75;;;;;;;13.65;61.50;102417.73;1766712;81;21009;-82
2021/09/05 06:35:15;;;;;;;5.90;3.80;;;;;;;13.66;61.50;102419.09;1765471;79;21591;-82
2021/09/05 06:37:41;;;;;;;6.67;3.47;;;;;;;13.66;61.61;102417.77;1766859;80;22310;-81
2021/09/05 06:40:10;;;;;;;5.40;3.92;;;;;;;13.68;61.77;102424.02;1766726;80;21018;-81
2021/09/05 06:42:36;;;;;;;5.80;3.22;;;;;;;13.69;61.82;102427.16;1766908;81;21089;-82
2021/09/05 06:45:04;;;;;;;5.00;3.12;;;;;;;13.66;61.52;102421.73;1766773;79;21070;-81
2021/09/05 06:47:30;;;;;;;4.62;3.20;;;;;;;13.64;61.45;102427.39;1823690;78;21054;-83
2021/09/05 06:49:57;;;;;;;5.85;3.37;;;;;;;13.62;61.43;102425.11;1803445;78;21719;-83
2021/09/05 06:52:24;;;;;;;7.95;3.52;;;;;;;13.62;61.43;102429.08;1805583;78;21128;-84
2021/09/05 06:54:50;;;;;;;4.42;3.22;;;;;;;13.65;61.56;102436.25;1761749;80;21041;-82
2021/09/05 06:57:17;;;;;;;7.92;3.67;;;;;;;13.68;61.81;102435.92;1761474;80;21117;-83
2021/09/05 06:59:44;;;;;;;4.95;3.67;;;;;;;13.77;61.97;102440.69;1761681;81;21094;-82
2021/09/05 07:02:10;;;;;;;5.85;3.75;;;;;;;13.84;62.14;102443.16;1759095;80;21718;-82
2021/09/05 07:04:37;;;;;;;9.55;3.42;;;;;;;13.93;62.13;102437.80;1756968;81;21255;-82
2021/09/05 07:07:04;;;;;;;5.35;3.40;;;;;;;14.04;61.89;102446.55;1785070;80;21069;-82
2021/09/05 07:09:30;;;;;;;4.53;3.05;;;;;;;14.12;61.73;102448.66;1772739;79;21555;-83
2021/09/05 07:11:57;;;;;;;4.70;2.95;;;;;;;14.19;61.65;102438.77;1783797;79;21021;-85
2021/09/05 07:14:24;;;;;;;6.25;3.05;;;;;;;14.26;61.45;102442.97;1783450;79;21735;-83
2021/09/05 07:16:51;;;;;;;3.83;2.52;;;;;;;14.27;61.14;102449.66;1782852;80;20965;-83
2021/09/05 07:19:18;;;;;;;3.92;3.00;;;;;;;14.26;61.01;102450.91;1783191;80;21257;-83
2021/09/05 07:21:44;;;;;;;6.62;3.33;;;;;;;14.25;61.01;102451.34;1783074;80;21121;-82
2021/09/05 07:24:11;;;;;;;6.45;3.40;;;;;;;14.28;61.05;102454.08;1783116;80;21007;-83
2021/09/05 07:26:38;;;;;;;6.08;3.02;;;;;;;14.35;61.08;102455.23;1783200;80;21780;-84
2021/09/05 07:29:05;;;;;;;5.55;2.60;;;;;;;14.44;60.92;102458.22;1782904;80;21074;-83
2021/09/05 07:31:32;;;;;;;5.58;3.40;;;;;;;14.53;60.81;102455.91;1782744;80;21094;-85
2021/09/05 07:33:59;;;;;;;8.75;3.60;;;;;;;14.62;60.89;102458.02;1783112;80;21041;-83
2021/09/05 07:36:26;;;;;;;5.97;3.85;;;;;;;14.70;60.91;102460.95;1783240;80;20987;-83
2021/09/05 07:38:52;;;;;;;5.70;3.30;;;;;;;14.75;60.93;102465.56;1783255;80;21742;-82
2021/09/05 07:41:19;;;;;;;5.80;3.60;;;;;;;14.82;60.98;102467.98;1783132;80;20994;-83
2021/09/05 07:43:46;;;;;;;6.30;3.67;;;;;;;14.92;61.01;102471.45;1783291;80;21022;-85
2021/09/05 07:46:12;;;;;;;5.03;3.15;;;;;;;15.01;60.62;102479.23;1783380;80;21134;-84
2021/09/05 07:48:39;;;;;;;5.85;3.22;;;;;;;15.06;60.34;102470.59;1783221;80;21057;-84
2021/09/05 07:51:06;;;;;;;5.08;2.77;;;;;;;15.15;60.50;102470.91;1783059;80;21677;-83
2021/09/05 07:53:32;;;;;;;7.33;3.15;;;;;;;15.29;60.37;102477.98;1782867;80;20983;-83
2021/09/05 07:55:59;;;;;;;4.83;2.72;;;;;;;15.47;60.32;102479.02;1778356;80;21065;-85
2021/09/05 07:58:27;;;;;;;3.80;3.00;;;;;;;15.79;60.17;102480.52;1783441;80;20967;-85
2021/09/05 08:00:55;;;;;;;3.17;2.22;;;;;;;16.18;59.95;102482.59;1783251;80;21042;-85
2021/09/05 08:03:22;;;;;;;3.95;2.58;;;;;;;16.47;59.39;102483.41;1783276;80;21809;-84
2021/09/05 08:05:49;;;;;;;3.85;2.58;;;;;;;16.67;58.68;102477.33;1783058;80;21573;-85
2021/09/05 08:08:19;;;;;;;3.47;2.20;;;;;;;16.93;58.50;102488.23;1783568;80;21539;-89
2021/09/05 08:10:45;;;;;;;4.58;2.62;;;;;;;17.20;58.24;102490.72;1783857;80;21089;-89
2021/09/05 08:13:12;;;;;;;3.58;2.52;;;;;;;17.41;57.83;102494.34;1783878;80;21073;-88
2021/09/05 08:15:39;;;;;;;4.15;2.52;;;;;;;17.44;57.37;102492.66;1783502;80;21720;-84
2021/09/05 08:18:05;;;;;;;7.20;3.15;;;;;;;17.42;57.06;102492.16;1783337;80;21085;-84
2021/09/05 08:20:32;;;;;;;3.47;2.15;;;;;;;17.34;57.02;102493.72;1755848;80;21076;-82
2021/09/05 08:22:59;;;;;;;6.62;3.33;;;;;;;17.28;56.96;102499.34;1772072;80;21088;-83
2021/09/05 08:25:26;;;;;;;3.25;2.00;;;;;;;17.21;56.79;102500.48;1815099;78;21054;-83
2021/09/05 08:27:52;;;;;;;4.10;2.30;;;;;;;17.17;56.71;102498.61;1814782;79;21748;-83
2021/09/05 08:30:19;;;;;;;3.40;1.85;;;;;;;17.17;56.48;102499.94;1814466;79;21097;-83
2021/09/05 08:32:46;;;;;;;3.08;2.08;;;;;;;17.18;55.91;102505.75;1814314;79;21670;-83
2021/09/05 08:35:13;;;;;;;5.72;3.12;;;;;;;17.15;55.77;102506.55;1814365;79;21552;-83
2021/09/05 08:37:40;;;;;;;4.67;2.50;;;;;;;17.16;55.87;102508.37;1814203;79;21054;-83
2021/09/05 08:40:07;;;;;;;3.87;2.15;;;;;;;17.19;56.17;102514.19;1814630;77;21692;-83
2021/09/05 08:42:35;;;;;;;3.58;2.55;;;;;;;17.13;55.60;102518.03;1814785;79;21034;-83
2021/09/05 08:45:04;;;;;;;5.22;2.55;;;;;;;17.06;55.65;102524.93;1815377;79;21057;-83
2021/09/05 08:47:34;;;;;;;4.22;2.90;;;;;;;17.01;55.73;102522.60;1815390;79;21042;-83
2021/09/05 08:50:02;;;;;;;4.35;2.10;;;;;;;16.95;55.85;102523.34;1815261;79;21082;-83
2021/09/05 08:52:29;;;;;;;4.67;2.80;;;;;;;16.89;55.43;102518.75;1815388;79;22275;-83
2021/09/05 08:54:56;;;;;;;4.55;1.80;;;;;;;16.86;55.59;102521.31;1815331;79;21069;-83
2021/09/05 08:57:22;;;;;;;6.28;2.60;;;;;;;16.79;55.33;102521.97;1815563;77;21034;-83
2021/09/05 08:59:49;;;;;;;3.45;2.52;;;;;;;16.62;55.45;102531.23;1815770;79;21073;-83
2021/09/05 09:02:15;;;;;;;4.45;2.40;;;;;;;16.44;55.53;102533.84;1815567;79;21045;-83
2021/09/05 09:04:43;;;;;;;3.83;2.12;;;;;;;16.30;55.56;102540.50;1815633;79;21851;-83
2021/09/05 09:07:13;;;;;;;5.33;2.15;;;;;;;16.22;55.56;102532.30;1815745;79;21070;-83
2021/09/05 09:10:01;;;;;;;3.02;2.00;;;;;;;16.11;55.09;102535.95;1815716;79;21169;-83
2021/09/05 09:12:43;;;;;;;3.60;1.37;;;;;;;16.02;54.84;102536.09;1792058;79;21027;-82
2021/09/05 09:15:32;;;;;;;5.97;1.70;;;;;;;15.97;54.57;102541.69;1815301;77;21077;-83
2021/09/05 09:18:03;;;;;;;2.62;1.87;;;;;;;15.97;54.54;102538.59;1814790;79;21807;-83
2021/09/05 09:20:40;;;;;;;4.60;1.72;;;;;;;16.05;54.97;102541.52;1815098;78;21578;-83
2021/09/05 09:23:13;;;;;;;2.00;1.55;;;;;;;16.10;54.77;102530.17;1815120;79;21061;-83
2021/09/05 09:26:02;;;;;;;2.10;1.40;;;;;;;16.11;54.46;102538.60;1815343;78;21050;-83
2021/09/05 09:28:37;;;;;;;2.12;1.42;;;;;;;16.10;54.35;102531.51;1814785;77;21101;-83
2021/09/05 09:31:25;;;;;;;3.00;2.12;;;;;;;16.11;54.43;102535.05;1814603;79;21736;-83
2021/09/05 09:33:57;;;;;;;4.30;2.17;;;;;;;16.05;54.42;102529.13;1814211;79;20963;-83
2021/09/05 09:36:29;;;;;;;3.05;2.15;;;;;;;15.99;54.24;102533.33;1814736;77;21113;-83
2021/09/05 09:39:05;;;;;;;3.42;2.08;;;;;;;15.91;54.30;102527.34;1814748;79;21567;-83
2021/09/05 09:41:34;;;;;;;2.25;1.45;;;;;;;15.87;54.40;102524.56;1810002;79;21579;-83
2021/09/05 09:44:03;;;;;;;4.10;1.52;;;;;;;15.85;54.30;102525.84;1814995;79;21746;-83
2021/09/05 09:46:35;;;;;;;2.35;1.50;;;;;;;15.91;54.24;102527.34;1815077;78;21346;-83
2021/09/05 09:49:05;;;;;;;4.03;1.90;;;;;;;15.96;54.10;102525.29;1815189;78;21081;-82
2021/09/05 09:51:32;;;;;;;2.37;1.27;;;;;;;16.01;54.07;102525.91;1815150;78;21007;-83
2021/09/05 09:53:59;;;;;;;2.35;1.65;;;;;;;16.09;54.11;102524.81;1815237;79;21047;-83
2021/09/05 09:56:26;;;;;;;4.12;1.70;;;;;;;16.23;54.36;102515.92;1815295;79;21694;-83
2021/09/05 09:58:56;;;;;;;2.45;1.57;;;;;;;16.45;54.55;102523.67;1815178;78;21015;-83
2021/09/05 10:01:24;;;;;;;1.67;1.22;;;;;;;16.70;54.25;102525.29;1815263;79;21172;-83
2021/09/05 10:03:52;;;;;;;1.47;1.00;;;;;;;16.89;53.57;102521.81;1815015;78;21069;-83
2021/09/05 10:06:19;;;;;;;2.75;1.15;;;;;;;17.00;53.08;102527.44;1815360;79;21046;-83
2021/09/05 10:08:46;;;;;;;2.25;1.32;;;;;;;17.06;52.66;102520.94;1815147;79;21920;-83
2021/09/05 10:11:16;;;;;;;2.98;1.82;;;;;;;17.00;52.25;102523.00;1815274;77;21027;-82
2021/09/05 10:13:43;;;;;;;1.85;1.30;;;;;;;17.02;52.26;102515.07;1815357;79;21131;-82
2021/09/05 10:16:11;;;;;;;1.57;1.30;;;;;;;17.09;52.27;102515.71;1814924;77;20964;-82
2021/09/05 10:18:45;;;;;;;2.52;1.35;;;;;;;17.18;51.95;102510.63;1814954;78;21065;-83
2021/09/05 10:21:19;;;;;;;2.52;1.85;;;;;;;17.23;51.88;102511.66;1814869;79;22392;-83
2021/09/05 10:23:53;;;;;;;3.12;1.80;;;;;;;17.31;51.68;102506.97;1815148;79;21741;-83
2021/09/05 10:26:20;;;;;;;2.08;1.40;;;;;;;17.30;51.56;102508.70;1814541;78;21109;-83
2021/09/05 10:28:53;;;;;;;2.85;1.40;;;;;;;17.22;51.30;102500.53;1815435;79;21244;-83
2021/09/05 10:31:33;;;;;;;3.72;2.17;;;;;;;17.10;51.07;102509.11;1815277;78;21062;-82
2021/09/05 10:33:59;;;;;;;2.02;1.50;;;;;;;17.02;50.82;102504.43;1785910;79;21736;-82
2021/09/05 10:36:27;;;;;;;2.17;1.57;;;;;;;16.86;50.66;102507.13;1815233;79;21045;-83
2021/09/05 10:39:08;;;;;;;1.82;1.32;;;;;;;16.74;50.65;102502.75;1815206;79;21143;-83
2021/09/05 10:41:49;;;;;;;4.17;2.58;;;;;;;16.69;51.02;102507.52;1815175;79;21906;-83
2021/09/05 10:44:16;;;;;;;2.02;1.45;;;;;;;16.73;50.92;102507.18;1815234;78;20979;-83
2021/09/05 10:46:48;;;;;;;2.22;1.50;;;;;;;16.77;51.01;102508.17;1815111;78;21644;-83
2021/09/05 10:49:16;;;;;;;4.45;1.82;;;;;;;16.89;51.17;102508.11;1815068;79;21042;-83
2021/09/05 10:51:53;;;;;;;3.52;1.90;;;;;;;17.04;51.10;102501.37;1815180;78;21324;-83
2021/09/05 10:54:25;;;;;;;4.42;1.40;;;;;;;17.05;50.46;102504.52;1815302;78;21560;-82
2021/09/05 10:56:54;;;;;;;2.83;1.90;;;;;;;17.08;50.28;102501.95;1785952;79;21101;-82
2021/09/05 10:59:22;;;;;;;6.10;1.55;;;;;;;17.11;50.28;102495.36;1815197;79;21805;-83
2021/09/05 11:01:54;;;;;;;2.50;1.77;;;;;;;17.23;50.27;102490.38;1815069;77;21517;-82
2021/09/05 11:04:42;;;;;;;2.02;1.67;;;;;;;17.35;50.03;102488.88;1815253;78;21595;-82
2021/09/05 11:07:31;;;;;;;3.20;1.20;;;;;;;17.42;49.89;102487.73;1815096;79;21053;-82
2021/09/05 11:09:58;;;;;;;2.00;1.30;;;;;;;17.44;49.49;102487.77;1815303;77;21069;-82
2021/09/05 11:12:36;;;;;;;2.62;1.47;;;;;;;17.51;49.39;102484.37;1815005;79;21789;-82
2021/09/05 11:15:13;;;;;;;4.25;1.62;;;;;;;17.48;49.31;102487.87;1814001;77;21048;-82
2021/09/05 11:17:40;;;;;;;1.90;1.30;;;;;;;17.43;49.42;102485.52;1807463;79;21087;-82
2021/09/05 11:20:09;;;;;;;3.37;1.50;;;;;;;17.42;49.46;102481.52;1807864;79;21109;-83
2021/09/05 11:22:44;;;;;;;3.60;1.62;;;;;;;17.41;49.43;102481.03;1807641;79;21058;-83
2021/09/05 11:25:31;;;;;;;1.25;1.00;;;;;;;17.35;49.36;102483.55;1807648;79;21778;-82
2021/09/05 11:28:07;;;;;;;2.33;1.50;;;;;;;17.33;49.16;102483.95;1807596;78;21019;-82
2021/09/05 11:30:43;;;;;;;2.10;1.20;;;;;;;17.32;49.08;102480.80;1807710;79;21067;-82
2021/09/05 11:33:12;;;;;;;2.42;1.80;;;;;;;17.41;48.89;102477.93;1807737;79;21279;-82